Time;durP1;ratioP1;P1;durP2;ratioP2;P2;SDS_P1;SDS_P2;PMS_P1;PMS_P2;Temp;Humidity;BMP_temperature;BMP_pressure;BME280_temperature;BME280_humidity;BME280_pressure;Samples;Min_cycle;Max_cycle;Signal;HPM_P1;HPM_P2
2021/12/23 00:02:22;;;;;;;24.08;15.98;;;-1.10;99.90;;;;;;4975042;28;20519;-72
2021/12/23 00:04:47;;;;;;;21.38;14.85;;;-1.10;99.90;;;;;;4979508;28;20049;-72
2021/12/23 00:07:13;;;;;;;25.55;16.08;;;-1.10;99.90;;;;;;4953799;28;20549;-72
2021/12/23 00:12:13;;;;;;;26.27;16.67;;;-1.10;99.90;;;;;;4974120;28;20038;-72
2021/12/23 00:14:39;;;;;;;21.08;15.85;;;-1.00;99.90;;;;;;4976889;28;20505;-72
2021/12/23 00:17:26;;;;;;;23.55;16.08;;;-1.00;99.90;;;;;;4971813;28;20041;-71
2021/12/23 00:25:18;;;;;;;22.77;16.00;;;-1.00;99.90;;;;;;4975396;28;20054;-72
2021/12/23 00:27:44;;;;;;;25.40;16.77;;;-0.90;99.90;;;;;;4974682;28;20457;-72
2021/12/23 00:30:10;;;;;;;24.17;16.40;;;-0.90;99.90;;;;;;4968311;28;20039;-71
2021/12/23 00:32:36;;;;;;;24.85;16.33;;;-0.90;99.90;;;;;;4974172;28;20131;-72
2021/12/23 00:35:04;;;;;;;26.70;16.58;;;-0.90;99.90;;;;;;4974943;28;20058;-72
2021/12/23 00:37:36;;;;;;;23.98;16.40;;;-0.90;99.90;;;;;;4974789;28;20034;-72
2021/12/23 00:40:04;;;;;;;20.67;15.85;;;-0.80;99.90;;;;;;4971770;28;20093;-72
2021/12/23 00:42:31;;;;;;;26.70;16.38;;;-0.80;99.90;;;;;;4974220;28;20098;-72
2021/12/23 00:44:57;;;;;;;21.63;16.08;;;-0.80;99.90;;;;;;4984894;28;20046;-72
2021/12/23 00:47:23;;;;;;;24.73;16.90;;;-0.80;99.90;;;;;;4971244;28;20061;-72
2021/12/23 00:49:48;;;;;;;25.73;15.77;;;-0.70;99.90;;;;;;4975370;28;20683;-72
2021/12/23 00:52:17;;;;;;;22.60;15.90;;;-0.80;99.90;;;;;;4971039;28;20531;-71
2021/12/23 00:54:43;;;;;;;23.50;16.15;;;-0.70;99.90;;;;;;4975946;28;20066;-71
2021/12/23 00:57:09;;;;;;;21.88;15.95;;;-0.70;99.90;;;;;;4973405;28;20570;-71
2021/12/23 00:59:37;;;;;;;21.52;16.05;;;-0.70;99.90;;;;;;4975298;28;20093;-72
2021/12/23 01:02:07;;;;;;;21.33;15.90;;;-0.60;99.90;;;;;;4968957;28;20116;-72
2021/12/23 01:04:33;;;;;;;24.70;16.48;;;-0.60;99.90;;;;;;4976300;28;20049;-73
2021/12/23 01:06:59;;;;;;;20.05;15.13;;;-0.60;99.90;;;;;;4950323;28;20098;-73
2021/12/23 01:09:25;;;;;;;19.60;15.52;;;-0.60;99.90;;;;;;4964465;28;20038;-72
2021/12/23 01:11:51;;;;;;;21.15;15.18;;;-0.60;99.90;;;;;;4981124;28;20104;-72
2021/12/23 01:17:11;;;;;;;23.45;16.27;;;-0.50;99.90;;;;;;4986349;28;20051;-72
2021/12/23 01:19:39;;;;;;;20.83;14.80;;;-0.50;99.90;;;;;;4976559;28;20094;-73
2021/12/23 01:22:07;;;;;;;23.05;16.15;;;-0.50;99.90;;;;;;4981681;28;20550;-72
2021/12/23 01:24:33;;;;;;;20.83;15.40;;;-0.50;99.90;;;;;;4976028;28;20388;-72
2021/12/23 01:27:00;;;;;;;23.08;16.15;;;-0.50;99.90;;;;;;4968666;28;20832;-71
2021/12/23 01:29:26;;;;;;;23.10;15.00;;;-0.50;99.90;;;;;;4969447;28;20081;-72
2021/12/23 01:31:52;;;;;;;24.42;15.85;;;-0.50;99.90;;;;;;4976958;28;20454;-72
2021/12/23 01:34:18;;;;;;;22.17;15.35;;;-0.40;99.90;;;;;;4960077;28;20092;-72
2021/12/23 01:36:43;;;;;;;20.98;15.80;;;-0.50;99.90;;;;;;4969006;28;20043;-71
2021/12/23 01:39:09;;;;;;;21.00;15.88;;;-0.50;99.90;;;;;;4954174;28;20403;-71
2021/12/23 01:41:35;;;;;;;24.27;16.58;;;-0.50;99.90;;;;;;4970669;28;20507;-72
2021/12/23 01:44:00;;;;;;;25.60;16.65;;;-0.40;99.90;;;;;;4971635;28;20574;-71
2021/12/23 01:46:26;;;;;;;24.25;16.55;;;-0.40;99.90;;;;;;4976282;28;20551;-73
2021/12/23 01:48:53;;;;;;;24.25;17.00;;;-0.40;99.90;;;;;;4974431;28;20514;-73
2021/12/23 01:51:19;;;;;;;23.63;16.35;;;-0.40;99.90;;;;;;4971950;28;20084;-73
2021/12/23 01:53:45;;;;;;;24.40;16.90;;;-0.40;99.90;;;;;;4972234;28;20042;-73
2021/12/23 01:56:11;;;;;;;22.00;16.58;;;-0.40;99.90;;;;;;4978557;28;20046;-73
2021/12/23 01:58:41;;;;;;;25.40;17.45;;;-0.40;99.90;;;;;;4973689;28;20483;-73
2021/12/23 02:01:09;;;;;;;24.02;15.93;;;-0.40;99.90;;;;;;4975439;28;20030;-73
2021/12/23 02:03:36;;;;;;;21.10;16.02;;;-0.40;99.90;;;;;;4972617;28;20038;-73
2021/12/23 02:06:02;;;;;;;24.52;16.73;;;-0.40;99.90;;;;;;4970848;28;20050;-73
2021/12/23 02:08:28;;;;;;;24.17;16.95;;;-0.40;99.90;;;;;;4974741;28;20042;-73
2021/12/23 02:10:55;;;;;;;24.83;16.15;;;-0.40;99.90;;;;;;4975339;28;20406;-73
2021/12/23 02:13:22;;;;;;;23.48;17.52;;;-0.40;99.90;;;;;;4975162;28;20141;-73
2021/12/23 02:15:48;;;;;;;23.77;17.23;;;-0.40;99.90;;;;;;4974858;28;20039;-73
2021/12/23 02:18:13;;;;;;;22.92;16.98;;;-0.40;99.90;;;;;;4972016;28;20839;-73
2021/12/23 02:20:39;;;;;;;23.90;17.35;;;-0.40;99.90;;;;;;4971871;28;20105;-73
2021/12/23 02:23:09;;;;;;;25.10;17.25;;;-0.30;99.90;;;;;;4974273;28;20042;-73
2021/12/23 02:25:35;;;;;;;25.63;17.05;;;-0.30;99.90;;;;;;4975369;28;20484;-73
2021/12/23 02:28:07;;;;;;;25.38;18.73;;;-0.40;99.90;;;;;;4980115;28;20045;-73
2021/12/23 02:30:38;;;;;;;30.00;18.43;;;-0.40;99.90;;;;;;4978255;28;20047;-73
2021/12/23 02:33:06;;;;;;;28.38;18.13;;;-0.40;99.90;;;;;;4978563;28;20046;-73
2021/12/23 02:35:33;;;;;;;24.77;17.33;;;-0.30;99.90;;;;;;4978515;28;20061;-73
2021/12/23 02:37:59;;;;;;;24.33;17.08;;;-0.30;99.90;;;;;;4984445;28;20042;-73
2021/12/23 02:40:40;;;;;;;23.58;17.38;;;-0.30;99.90;;;;;;4952442;28;20061;-73
2021/12/23 02:43:20;;;;;;;23.55;17.38;;;-0.30;99.90;;;;;;4950920;28;20046;-72
2021/12/23 02:45:50;;;;;;;25.73;17.23;;;-0.30;99.90;;;;;;4961734;28;20058;-72
2021/12/23 02:48:30;;;;;;;24.35;17.25;;;-0.30;99.90;;;;;;4957217;28;20070;-72
2021/12/23 02:50:56;;;;;;;29.08;19.08;;;-0.20;99.90;;;;;;4979326;28;20030;-72
2021/12/23 02:53:22;;;;;;;25.70;17.75;;;-0.30;99.90;;;;;;4980848;28;20189;-72
2021/12/23 02:55:48;;;;;;;23.90;17.85;;;-0.30;99.90;;;;;;4983425;28;20041;-72
2021/12/23 02:58:15;;;;;;;25.40;18.08;;;-0.30;99.90;;;;;;4980373;28;20042;-72
2021/12/23 03:00:42;;;;;;;25.48;18.80;;;-0.20;99.90;;;;;;4980233;28;20109;-72
2021/12/23 03:03:08;;;;;;;24.90;17.63;;;-0.20;99.90;;;;;;4980490;28;20044;-73
2021/12/23 03:05:34;;;;;;;26.40;19.23;;;-0.20;99.90;;;;;;4984495;28;20051;-73
2021/12/23 03:08:01;;;;;;;27.70;18.65;;;-0.20;99.90;;;;;;4982950;28;20058;-73
2021/12/23 03:10:26;;;;;;;24.40;18.17;;;-0.20;99.90;;;;;;4992235;28;20041;-73
2021/12/23 03:12:53;;;;;;;24.77;17.75;;;-0.20;99.90;;;;;;4983400;28;20125;-73
2021/12/23 03:15:18;;;;;;;28.48;18.45;;;-0.30;99.90;;;;;;4983328;28;20030;-73
2021/12/23 03:17:44;;;;;;;27.23;18.67;;;-0.30;99.90;;;;;;4986758;28;20154;-73
2021/12/23 03:20:10;;;;;;;29.25;19.17;;;-0.30;99.90;;;;;;4980839;28;20049;-73
2021/12/23 03:22:36;;;;;;;29.10;18.25;;;-0.20;99.90;;;;;;4982666;28;20042;-72
2021/12/23 03:25:02;;;;;;;28.52;18.65;;;-0.30;99.90;;;;;;4981563;28;20042;-72
2021/12/23 03:27:28;;;;;;;25.63;18.58;;;-0.30;99.90;;;;;;4984971;28;20034;-72
2021/12/23 03:29:56;;;;;;;28.98;19.40;;;-0.20;99.90;;;;;;4976363;28;20102;-73
2021/12/23 03:32:23;;;;;;;26.30;18.55;;;-0.20;99.90;;;;;;4984077;28;20054;-72
2021/12/23 03:34:49;;;;;;;25.67;18.25;;;-0.20;99.90;;;;;;4984029;28;20042;-72
2021/12/23 03:37:14;;;;;;;24.58;17.38;;;-0.20;99.90;;;;;;4982321;28;20042;-72
2021/12/23 03:39:41;;;;;;;29.65;18.08;;;-0.20;99.90;;;;;;4974337;28;20101;-72
2021/12/23 03:42:07;;;;;;;28.92;17.48;;;-0.20;99.90;;;;;;4978791;28;20379;-72
2021/12/23 03:44:32;;;;;;;25.15;17.83;;;-0.20;99.90;;;;;;4981486;28;20110;-72
2021/12/23 03:46:58;;;;;;;24.98;17.27;;;-0.20;99.90;;;;;;4986893;28;20041;-73
2021/12/23 03:49:24;;;;;;;26.38;17.88;;;-0.10;99.90;;;;;;4981287;28;20051;-73
2021/12/23 03:51:49;;;;;;;27.02;17.90;;;-0.20;99.90;;;;;;4977525;28;20042;-73
2021/12/23 03:54:15;;;;;;;32.83;17.52;;;-0.10;99.90;;;;;;4981329;28;20039;-72
2021/12/23 03:56:41;;;;;;;25.92;16.95;;;-0.20;99.90;;;;;;4976025;28;20042;-72
2021/12/23 03:59:07;;;;;;;26.60;17.95;;;-0.10;99.90;;;;;;4970901;28;20070;-72
2021/12/23 04:01:33;;;;;;;30.08;18.23;;;-0.10;99.90;;;;;;4972317;28;20133;-72
2021/12/23 04:03:59;;;;;;;25.75;18.42;;;-0.20;99.90;;;;;;4978431;28;20042;-72
2021/12/23 04:06:26;;;;;;;24.15;17.30;;;-0.10;99.90;;;;;;4974000;28;20046;-72
2021/12/23 04:08:54;;;;;;;23.83;17.05;;;-0.10;99.90;;;;;;4978999;28;20050;-73
2021/12/23 04:11:20;;;;;;;27.15;17.98;;;-0.10;99.90;;;;;;4949362;28;20686;-72
2021/12/23 04:13:46;;;;;;;25.05;18.08;;;-0.20;99.90;;;;;;4946794;28;20462;-72
2021/12/23 04:16:12;;;;;;;25.92;17.80;;;-0.20;99.90;;;;;;4981107;28;20078;-73
2021/12/23 04:18:37;;;;;;;29.23;18.65;;;-0.20;99.90;;;;;;4978571;28;20045;-73
2021/12/23 04:21:03;;;;;;;26.52;17.80;;;-0.20;99.90;;;;;;4981284;28;20085;-72
2021/12/23 04:23:31;;;;;;;24.48;17.27;;;-0.10;99.90;;;;;;4983652;28;20049;-72
2021/12/23 04:25:57;;;;;;;27.27;18.15;;;-0.10;99.90;;;;;;4981025;28;20069;-72
2021/12/23 04:28:24;;;;;;;26.30;18.35;;;-0.10;99.90;;;;;;4979991;28;20038;-72
2021/12/23 04:30:51;;;;;;;26.55;19.20;;;-0.10;99.90;;;;;;4977381;28;20038;-72
2021/12/23 04:33:16;;;;;;;29.27;18.17;;;-0.10;99.90;;;;;;4980998;28;20133;-72
2021/12/23 04:35:42;;;;;;;28.85;18.85;;;0.00;99.90;;;;;;4965493;28;20137;-72
2021/12/23 04:38:08;;;;;;;28.00;19.17;;;-0.10;99.90;;;;;;4984490;28;20127;-73
2021/12/23 04:40:35;;;;;;;26.92;18.67;;;-0.10;99.90;;;;;;4962079;28;20039;-72
2021/12/23 04:43:04;;;;;;;26.75;19.00;;;-0.10;99.90;;;;;;4980318;28;20100;-73
2021/12/23 04:45:32;;;;;;;30.58;19.90;;;-0.10;99.90;;;;;;4978792;28;20053;-72
2021/12/23 04:47:58;;;;;;;32.78;18.67;;;0.00;99.90;;;;;;4981359;28;20073;-72
2021/12/23 04:50:24;;;;;;;27.77;19.05;;;0.00;99.90;;;;;;4974948;28;20050;-73
2021/12/23 04:52:51;;;;;;;28.58;19.42;;;-0.10;99.90;;;;;;4978787;28;20052;-73
2021/12/23 04:55:17;;;;;;;29.00;19.52;;;-0.10;99.90;;;;;;4975242;28;20039;-73
2021/12/23 04:57:44;;;;;;;28.48;20.33;;;-0.10;99.90;;;;;;4975651;28;20046;-73
2021/12/23 05:00:17;;;;;;;31.40;19.65;;;-0.10;99.90;;;;;;4971944;28;20077;-73
2021/12/23 05:02:43;;;;;;;29.92;19.98;;;-0.10;99.90;;;;;;4977577;28;20066;-73
2021/12/23 05:05:09;;;;;;;28.45;19.75;;;-0.10;99.90;;;;;;4978490;28;20077;-73
2021/12/23 05:07:37;;;;;;;29.02;20.65;;;-0.10;99.90;;;;;;4974118;28;20034;-73
2021/12/23 05:10:05;;;;;;;33.58;19.92;;;0.00;99.90;;;;;;4973254;28;20042;-73
2021/12/23 05:12:31;;;;;;;33.33;20.10;;;0.00;99.90;;;;;;4973714;28;20126;-72
2021/12/23 05:14:57;;;;;;;31.20;20.35;;;0.10;99.90;;;;;;4969306;28;20137;-72
2021/12/23 05:17:22;;;;;;;32.92;20.48;;;0.00;99.90;;;;;;4975776;28;20043;-72
2021/12/23 05:19:48;;;;;;;26.25;20.08;;;0.00;99.90;;;;;;4972215;28;20043;-72
2021/12/23 05:22:14;;;;;;;30.00;20.70;;;0.10;99.90;;;;;;4969548;28;20039;-72
2021/12/23 05:24:40;;;;;;;29.77;19.77;;;0.00;99.90;;;;;;4969871;28;20038;-72
2021/12/23 05:27:05;;;;;;;28.25;19.85;;;0.10;99.90;;;;;;4972469;28;20121;-72
2021/12/23 05:29:31;;;;;;;27.80;20.08;;;0.10;99.90;;;;;;4968674;28;20460;-72
2021/12/23 05:31:57;;;;;;;31.20;19.92;;;0.10;99.90;;;;;;4968568;28;20407;-72
2021/12/23 05:34:22;;;;;;;33.90;21.40;;;0.10;99.90;;;;;;4971210;28;20031;-72
2021/12/23 05:36:48;;;;;;;32.42;21.30;;;0.10;99.90;;;;;;4968235;28;20467;-72
2021/12/23 05:39:13;;;;;;;30.92;20.45;;;0.10;99.90;;;;;;4967620;28;20053;-72
2021/12/23 05:41:39;;;;;;;30.02;21.38;;;0.20;99.90;;;;;;4968155;28;20476;-72
2021/12/23 05:44:05;;;;;;;31.63;21.88;;;0.10;99.90;;;;;;4972658;28;20047;-72
2021/12/23 05:46:31;;;;;;;31.45;21.75;;;0.20;99.90;;;;;;4966999;28;20511;-72
2021/12/23 05:48:57;;;;;;;30.02;21.55;;;0.20;99.90;;;;;;4970989;28;20049;-72
2021/12/23 05:51:22;;;;;;;33.65;22.52;;;0.10;99.90;;;;;;4973457;28;20483;-72
2021/12/23 05:53:48;;;;;;;30.58;21.23;;;0.10;99.90;;;;;;4971622;28;20446;-72
2021/12/23 05:56:14;;;;;;;32.28;22.20;;;0.10;99.90;;;;;;4971381;28;22286;-72
2021/12/23 05:58:40;;;;;;;33.85;21.23;;;0.10;99.90;;;;;;4969270;28;20514;-72
2021/12/23 06:01:05;;;;;;;35.10;22.60;;;0.00;99.90;;;;;;4974264;28;21954;-73
2021/12/23 06:03:31;;;;;;;33.40;22.13;;;0.10;99.90;;;;;;4976478;28;20555;-73
2021/12/23 06:05:57;;;;;;;36.75;23.77;;;0.10;99.90;;;;;;4971154;28;20042;-73
2021/12/23 06:08:23;;;;;;;31.65;21.38;;;0.10;99.90;;;;;;4973562;28;20053;-73
2021/12/23 06:10:49;;;;;;;30.15;21.83;;;0.10;99.90;;;;;;4972316;28;20384;-73
2021/12/23 06:13:14;;;;;;;32.00;21.63;;;0.10;99.90;;;;;;4979629;28;20046;-73
2021/12/23 06:15:40;;;;;;;33.65;22.08;;;0.00;99.90;;;;;;4975297;28;20143;-73
2021/12/23 06:18:06;;;;;;;31.02;21.48;;;0.00;99.90;;;;;;4974637;28;20054;-73
2021/12/23 06:20:33;;;;;;;29.40;20.50;;;0.00;99.90;;;;;;4972290;28;20058;-73
2021/12/23 06:22:58;;;;;;;34.20;21.83;;;0.10;99.90;;;;;;4971013;28;20055;-73
2021/12/23 06:25:24;;;;;;;29.42;20.73;;;0.10;99.90;;;;;;4974321;28;20050;-73
2021/12/23 06:27:50;;;;;;;31.60;22.58;;;0.10;99.90;;;;;;4976890;28;20077;-73
2021/12/23 06:30:19;;;;;;;30.70;22.33;;;0.10;99.90;;;;;;4972722;28;20133;-73
2021/12/23 06:32:55;;;;;;;31.35;21.67;;;0.10;99.90;;;;;;4977156;28;20113;-72
2021/12/23 06:35:25;;;;;;;31.85;21.67;;;0.10;99.90;;;;;;4971589;28;20399;-73
2021/12/23 06:37:50;;;;;;;31.92;21.50;;;0.10;99.90;;;;;;4974877;28;20034;-73
2021/12/23 06:40:17;;;;;;;32.33;22.33;;;0.10;99.90;;;;;;5003000;23;20039;-72
2021/12/23 06:42:43;;;;;;;34.97;23.75;;;0.10;99.90;;;;;;4992594;28;20076;-72
2021/12/23 06:45:09;;;;;;;32.70;22.30;;;0.10;99.90;;;;;;4988434;28;20109;-72
2021/12/23 06:47:36;;;;;;;31.90;22.50;;;0.10;99.90;;;;;;4991816;28;20413;-72
2021/12/23 06:50:06;;;;;;;31.77;22.27;;;0.10;99.90;;;;;;4990925;28;20112;-72
2021/12/23 06:52:32;;;;;;;37.33;23.02;;;0.10;99.90;;;;;;5004500;28;20505;-72
2021/12/23 06:54:58;;;;;;;34.38;23.45;;;0.10;99.90;;;;;;4994230;28;20043;-72
2021/12/23 06:57:25;;;;;;;32.70;23.33;;;0.10;99.90;;;;;;4995538;28;20554;-71
2021/12/23 06:59:51;;;;;;;35.30;23.40;;;0.20;99.90;;;;;;4987058;28;20081;-72
2021/12/23 07:02:17;;;;;;;31.67;22.27;;;0.20;99.90;;;;;;5000007;28;20077;-72
2021/12/23 07:04:44;;;;;;;34.95;23.10;;;0.20;99.90;;;;;;4967865;28;20038;-72
2021/12/23 07:07:12;;;;;;;39.53;23.92;;;0.20;99.90;;;;;;4987276;28;20505;-72
2021/12/23 07:09:40;;;;;;;37.15;24.17;;;0.20;99.90;;;;;;4988231;28;20878;-72
2021/12/23 07:12:08;;;;;;;35.65;23.15;;;0.20;99.90;;;;;;4995470;28;20548;-72
2021/12/23 07:14:35;;;;;;;38.95;24.55;;;0.20;99.90;;;;;;4993649;28;20046;-72
2021/12/23 07:17:01;;;;;;;34.63;23.80;;;0.30;99.90;;;;;;4995659;28;20046;-72
2021/12/23 07:19:27;;;;;;;35.92;24.63;;;0.30;99.90;;;;;;4998588;28;20034;-72
2021/12/23 07:21:53;;;;;;;35.25;23.75;;;0.30;99.90;;;;;;5003021;28;20049;-72
2021/12/23 07:24:18;;;;;;;35.50;24.52;;;0.20;99.90;;;;;;4991097;28;20046;-72
2021/12/23 07:26:44;;;;;;;36.33;24.00;;;0.20;99.90;;;;;;4992729;28;20081;-72
2021/12/23 07:29:10;;;;;;;34.97;24.05;;;0.30;99.90;;;;;;4988986;28;20053;-72
2021/12/23 07:31:36;;;;;;;32.53;24.08;;;0.30;99.90;;;;;;4994794;28;20045;-72
2021/12/23 07:34:01;;;;;;;36.25;24.60;;;0.30;99.90;;;;;;4992024;28;20633;-72
2021/12/23 07:36:28;;;;;;;39.45;24.25;;;0.40;99.90;;;;;;4995827;28;20034;-71
2021/12/23 07:38:56;;;;;;;35.33;24.88;;;0.30;99.90;;;;;;4976269;28;20076;-72
2021/12/23 07:41:22;;;;;;;35.10;23.90;;;0.30;99.90;;;;;;4984734;28;20403;-72
2021/12/23 07:44:19;;;;;;;33.13;24.33;;;0.40;99.90;;;;;;4989637;28;20068;-72
2021/12/23 07:46:36;;;;;;;38.22;23.88;;;0.40;99.90;;;;;;4994166;28;20234;-73
2021/12/23 07:49:03;;;;;;;35.10;24.15;;;0.40;99.90;;;;;;4988912;28;20042;-73
2021/12/23 07:51:29;;;;;;;38.15;24.60;;;0.40;99.90;;;;;;4978878;28;20470;-73
2021/12/23 07:53:55;;;;;;;35.58;24.17;;;0.40;99.90;;;;;;4993196;28;20044;-72
2021/12/23 07:56:22;;;;;;;39.38;25.48;;;0.50;99.90;;;;;;4993252;28;20752;-73
2021/12/23 07:58:48;;;;;;;39.78;25.60;;;0.40;99.90;;;;;;4999115;28;20034;-73
2021/12/23 08:01:14;;;;;;;39.15;25.50;;;0.50;99.90;;;;;;4997470;28;20049;-72
2021/12/23 08:03:40;;;;;;;37.30;25.40;;;0.50;99.90;;;;;;4988309;28;20062;-72
2021/12/23 08:06:05;;;;;;;39.45;25.77;;;0.50;99.90;;;;;;4994524;28;20490;-72
2021/12/23 08:08:31;;;;;;;36.63;24.67;;;0.50;99.90;;;;;;4991031;28;20034;-73
2021/12/23 08:10:57;;;;;;;40.45;25.83;;;0.50;99.90;;;;;;4993659;28;20041;-72
2021/12/23 08:13:23;;;;;;;38.00;25.73;;;0.60;99.90;;;;;;4994208;28;20446;-72
2021/12/23 08:15:48;;;;;;;39.30;26.27;;;0.50;99.90;;;;;;4990592;28;20034;-72
2021/12/23 08:18:15;;;;;;;35.97;25.85;;;0.50;99.90;;;;;;4970553;28;20033;-72
2021/12/23 08:20:41;;;;;;;42.63;26.88;;;0.50;99.90;;;;;;4979567;28;20060;-73
2021/12/23 08:23:06;;;;;;;42.22;27.85;;;0.50;99.90;;;;;;4979373;28;20042;-73
2021/12/23 08:25:32;;;;;;;42.88;28.02;;;0.60;99.90;;;;;;4987238;28;20089;-73
2021/12/23 08:27:58;;;;;;;41.22;27.85;;;0.50;99.90;;;;;;4971487;28;20410;-73
2021/12/23 08:30:24;;;;;;;42.17;27.15;;;0.50;99.90;;;;;;4974122;28;20050;-73
2021/12/23 08:32:50;;;;;;;41.88;28.15;;;0.60;99.90;;;;;;4993851;28;20030;-73
2021/12/23 08:35:17;;;;;;;41.92;27.75;;;0.60;99.90;;;;;;4967794;28;20437;-73
2021/12/23 08:37:47;;;;;;;45.33;28.23;;;0.50;99.90;;;;;;4991890;28;20035;-73
2021/12/23 08:40:19;;;;;;;44.70;28.20;;;0.50;99.90;;;;;;4989423;28;20042;-73
2021/12/23 08:42:45;;;;;;;47.78;29.42;;;0.50;99.90;;;;;;4988280;28;20420;-73
2021/12/23 08:45:10;;;;;;;47.28;28.95;;;0.60;99.90;;;;;;4992449;28;20410;-73
2021/12/23 08:47:37;;;;;;;47.97;30.02;;;0.60;99.90;;;;;;4989080;28;20034;-73
2021/12/23 08:50:07;;;;;;;46.15;30.27;;;0.60;99.90;;;;;;4989292;28;20418;-73
2021/12/23 08:52:34;;;;;;;50.35;30.23;;;0.60;99.90;;;;;;4984560;28;20470;-73
2021/12/23 08:55:00;;;;;;;45.60;29.02;;;0.50;99.90;;;;;;4991853;28;20034;-73
2021/12/23 08:57:26;;;;;;;48.85;31.13;;;0.60;99.90;;;;;;4991804;28;20511;-73
2021/12/23 08:59:51;;;;;;;46.47;30.52;;;0.60;99.90;;;;;;4995532;28;20030;-73
2021/12/23 09:02:17;;;;;;;52.20;32.03;;;0.60;99.90;;;;;;4986314;28;20046;-73
2021/12/23 09:04:43;;;;;;;49.72;32.08;;;0.60;99.90;;;;;;4990869;28;20030;-73
2021/12/23 09:07:10;;;;;;;50.35;31.85;;;0.60;99.90;;;;;;4992503;28;20053;-73
2021/12/23 09:09:36;;;;;;;50.13;31.95;;;0.60;99.90;;;;;;4991221;28;20042;-73
2021/12/23 09:12:04;;;;;;;50.03;31.67;;;0.60;99.90;;;;;;4991788;28;20046;-73
2021/12/23 09:14:31;;;;;;;53.42;32.00;;;0.60;99.90;;;;;;4991498;28;20038;-73
2021/12/23 09:16:57;;;;;;;52.67;31.77;;;0.60;99.90;;;;;;4989494;28;20116;-73
2021/12/23 09:19:23;;;;;;;52.47;32.13;;;0.60;99.90;;;;;;5001578;28;20038;-73
2021/12/23 09:21:48;;;;;;;54.92;33.58;;;0.60;99.90;;;;;;4988080;28;20034;-73
2021/12/23 09:24:14;;;;;;;58.65;35.33;;;0.60;99.90;;;;;;4982468;28;20038;-73
2021/12/23 09:26:51;;;;;;;54.67;33.85;;;0.60;99.90;;;;;;4990957;28;20557;-73
2021/12/23 09:34:44;;;;;;;57.70;33.17;;;0.70;99.90;;;;;;4990656;28;20064;-73
2021/12/23 09:37:10;;;;;;;58.03;34.85;;;0.70;99.90;;;;;;4990956;28;20486;-73
2021/12/23 09:39:36;;;;;;;60.88;33.95;;;0.70;99.90;;;;;;4990469;28;20035;-73
2021/12/23 09:42:03;;;;;;;60.83;35.15;;;0.80;99.90;;;;;;4978108;28;20130;-73
2021/12/23 09:44:30;;;;;;;62.53;36.15;;;0.80;99.90;;;;;;4981664;28;20398;-73
2021/12/23 09:47:00;;;;;;;59.53;35.95;;;0.80;99.90;;;;;;4990495;28;21253;-73
2021/12/23 09:49:26;;;;;;;64.65;36.40;;;0.80;99.90;;;;;;4988783;28;20050;-73
2021/12/23 09:51:54;;;;;;;61.38;36.95;;;0.80;99.90;;;;;;4993167;28;20049;-73
2021/12/23 09:54:20;;;;;;;65.07;34.53;;;0.80;99.90;;;;;;4989961;28;20432;-74
2021/12/23 09:56:46;;;;;;;63.20;37.33;;;0.70;99.90;;;;;;4990511;28;20403;-73
2021/12/23 09:59:13;;;;;;;63.22;36.45;;;0.70;99.90;;;;;;4990590;28;20046;-73
2021/12/23 10:01:40;;;;;;;59.70;35.67;;;0.80;99.90;;;;;;4989465;28;20525;-73
2021/12/23 10:04:05;;;;;;;61.88;36.70;;;0.80;99.90;;;;;;4973660;28;20506;-73
2021/12/23 10:06:32;;;;;;;62.03;36.70;;;0.80;99.90;;;;;;4990120;28;20129;-73
2021/12/23 10:08:58;;;;;;;62.40;36.85;;;0.80;99.90;;;;;;4991122;28;20569;-73
2021/12/23 10:11:50;;;;;;;61.67;37.58;;;0.90;99.90;;;;;;4990217;28;20046;-74
2021/12/23 10:31:30;;;;;;;65.30;36.08;;;0.90;99.90;;;;;;4988680;28;20505;-75
2021/12/23 10:37:17;;;;;;;66.43;36.45;;;1.00;99.90;;;;;;4986032;28;20525;-76
2021/12/23 10:40:03;;;;;;;64.63;37.00;;;1.00;99.90;;;;;;4970370;28;20549;-76
2021/12/23 10:42:29;;;;;;;66.95;36.40;;;1.00;99.90;;;;;;4980751;28;20386;-76
2021/12/23 10:45:11;;;;;;;70.72;39.20;;;1.00;99.90;;;;;;4990946;28;20486;-75
2021/12/23 10:47:45;;;;;;;65.53;36.83;;;1.00;99.90;;;;;;4974825;28;20978;-76
2021/12/23 10:50:33;;;;;;;69.82;38.13;;;1.00;99.90;;;;;;4993361;28;20038;-75
2021/12/23 10:53:10;;;;;;;65.32;38.00;;;1.00;99.90;;;;;;4994422;28;20516;-76
2021/12/23 10:58:22;;;;;;;70.10;38.97;;;1.00;99.90;;;;;;5008237;28;20038;-76
2021/12/23 11:00:54;;;;;;;73.28;39.58;;;1.00;99.90;;;;;;4985750;28;20039;-76
2021/12/23 11:03:38;;;;;;;72.22;38.55;;;1.00;99.90;;;;;;4991108;28;20034;-75
2021/12/23 11:06:24;;;;;;;76.72;41.42;;;1.00;99.90;;;;;;4990834;28;20117;-76
2021/12/23 11:31:49;;;;;;;73.75;39.78;;;1.10;99.90;;;;;;5002062;28;20066;-76
2021/12/23 11:36:33;;;;;;;78.28;40.47;;;1.10;99.90;;;;;;4966007;28;20045;-77
2021/12/23 11:39:13;;;;;;;85.00;42.45;;;1.10;99.90;;;;;;4975838;28;20035;-76
2021/12/23 11:41:48;;;;;;;81.57;40.50;;;1.20;99.90;;;;;;4985333;28;20398;-76
2021/12/23 11:44:14;;;;;;;81.20;41.25;;;1.10;99.90;;;;;;4990712;28;20521;-77
2021/12/23 11:46:46;;;;;;;82.68;42.03;;;1.10;99.90;;;;;;4998701;28;20167;-76
2021/12/23 11:49:13;;;;;;;63.75;32.92;;;1.10;99.90;;;;;;4988886;28;20486;-76
2021/12/23 11:51:51;;;;;;;76.05;40.90;;;1.10;99.90;;;;;;4995082;28;20038;-76
2021/12/23 11:54:19;;;;;;;81.22;41.40;;;1.10;99.90;;;;;;4998400;28;20034;-76
2021/12/23 11:56:53;;;;;;;80.85;43.03;;;1.10;99.90;;;;;;4980474;28;20046;-76
2021/12/23 11:59:19;;;;;;;79.85;42.30;;;1.20;99.90;;;;;;4993460;28;20046;-76
2021/12/23 12:01:53;;;;;;;79.38;41.92;;;1.20;99.90;;;;;;4997827;28;20037;-76
2021/12/23 12:04:35;;;;;;;82.55;41.55;;;1.20;99.90;;;;;;4988767;28;20042;-76
2021/12/23 12:07:10;;;;;;;76.65;40.10;;;1.20;99.90;;;;;;5007862;28;20490;-75
2021/12/23 12:09:38;;;;;;;80.95;40.60;;;1.20;99.90;;;;;;4988497;28;20500;-74
2021/12/23 12:12:08;;;;;;;81.07;41.45;;;1.30;99.90;;;;;;4974392;28;20034;-75
2021/12/23 12:14:40;;;;;;;73.75;38.60;;;1.30;99.90;;;;;;4992297;28;20454;-75
2021/12/23 12:17:26;;;;;;;73.40;38.97;;;1.30;99.90;;;;;;5004760;28;20046;-74
2021/12/23 12:20:14;;;;;;;77.78;41.05;;;1.30;99.90;;;;;;4974873;28;20038;-75
2021/12/23 12:22:53;;;;;;;75.80;40.00;;;1.30;99.90;;;;;;4989529;28;20494;-75
2021/12/23 12:25:25;;;;;;;81.28;42.17;;;1.20;99.90;;;;;;4988722;28;20510;-74
2021/12/23 12:28:11;;;;;;;75.55;40.10;;;1.20;99.90;;;;;;4991075;28;20556;-75
2021/12/23 12:30:44;;;;;;;75.78;40.58;;;1.20;99.90;;;;;;4975538;28;20398;-75
2021/12/23 12:33:34;;;;;;;79.97;40.75;;;1.20;99.90;;;;;;4993134;28;20548;-74
2021/12/23 12:36:04;;;;;;;78.18;41.20;;;1.30;99.90;;;;;;4981180;28;20494;-74
2021/12/23 12:38:46;;;;;;;71.97;41.20;;;1.30;99.90;;;;;;4994896;28;20560;-74
2021/12/23 12:41:18;;;;;;;76.72;40.03;;;1.30;99.90;;;;;;5003441;23;20093;-73
2021/12/23 12:44:36;;;;;;;76.28;40.80;;;1.30;99.90;;;;;;4987840;28;20042;-73
2021/12/23 12:47:17;;;;;;;65.95;37.70;;;1.30;99.90;;;;;;4954384;28;20527;-73
2021/12/23 12:49:50;;;;;;;73.75;40.35;;;1.40;99.90;;;;;;4985095;28;20056;-73
2021/12/23 12:52:23;;;;;;;75.10;39.63;;;1.40;99.90;;;;;;4984621;28;20038;-73
2021/12/23 12:54:52;;;;;;;69.95;37.75;;;1.40;99.90;;;;;;4987198;28;20045;-73
2021/12/23 12:57:20;;;;;;;74.90;40.60;;;1.40;99.90;;;;;;4987436;28;20038;-73
2021/12/23 12:59:48;;;;;;;74.22;40.75;;;1.40;99.90;;;;;;4986053;28;20133;-73
2021/12/23 13:02:31;;;;;;;74.00;39.83;;;1.40;99.90;;;;;;4986207;28;20053;-73
2021/12/23 13:05:06;;;;;;;;;;;1.40;99.90;;;;;;4983324;28;20088;-73
2021/12/23 13:07:36;;;;;;;68.03;36.95;;;1.40;99.90;;;;;;4982469;28;19968;-73
2021/12/23 13:10:15;;;;;;;75.63;39.63;;;1.40;99.90;;;;;;4991872;28;20042;-73
2021/12/23 13:12:47;;;;;;;70.20;39.20;;;1.40;99.90;;;;;;4983299;28;20044;-73
2021/12/23 13:15:16;;;;;;;72.15;39.80;;;1.50;99.90;;;;;;4981256;28;20030;-73
2021/12/23 13:17:57;;;;;;;67.47;38.80;;;1.50;99.90;;;;;;4983986;28;20050;-73
2021/12/23 13:20:36;;;;;;;72.13;39.78;;;1.40;99.90;;;;;;4949182;28;20077;-73
2021/12/23 13:23:14;;;;;;;81.80;40.65;;;1.40;99.90;;;;;;4966202;28;20072;-73
2021/12/23 13:25:58;;;;;;;71.78;39.60;;;1.50;99.90;;;;;;4983246;28;20097;-73
2021/12/23 13:28:33;;;;;;;68.65;38.67;;;1.50;99.90;;;;;;4966384;28;20104;-74
2021/12/23 13:31:01;;;;;;;72.88;39.45;;;1.50;99.90;;;;;;4982168;28;20049;-74
2021/12/23 13:33:28;;;;;;;72.13;39.80;;;1.50;99.90;;;;;;4985241;28;20034;-74
2021/12/23 13:35:54;;;;;;;70.90;39.25;;;1.40;99.90;;;;;;4980416;28;20041;-73
2021/12/23 13:38:46;;;;;;;74.13;38.75;;;1.40;99.90;;;;;;4983257;28;20038;-73
2021/12/23 13:41:24;;;;;;;72.05;37.72;;;1.40;99.90;;;;;;4979944;28;20249;-73
2021/12/23 13:43:52;;;;;;;72.43;39.10;;;1.40;99.90;;;;;;4984868;28;20038;-73
2021/12/23 13:46:17;;;;;;;78.80;40.25;;;1.40;99.90;;;;;;4981969;28;20038;-73